Time;durP1;ratioP1;P1;durP2;ratioP2;P2;SDS_P1;SDS_P2;PMS_P1;PMS_P2;Temp;Humidity;BMP_temperature;BMP_pressure;BME280_temperature;BME280_humidity;BME280_pressure;Samples;Min_cycle;Max_cycle;Signal;HPM_P1;HPM_P2
2023/03/27 00:00:42;;;;;;;9.98;5.68;;;;;;;4.20;76.74;101384.22;5135336;27;20070;-57
2023/03/27 00:03:09;;;;;;;11.63;6.18;;;;;;;4.22;77.75;101378.00;5118643;27;20022;-56
2023/03/27 00:05:35;;;;;;;12.90;6.40;;;;;;;4.27;78.21;101391.06;5117678;27;20473;-56
2023/03/27 00:08:00;;;;;;;16.15;6.60;;;;;;;4.23;78.11;101379.72;5135889;27;20076;-56
2023/03/27 00:10:27;;;;;;;13.77;6.38;;;;;;;4.33;78.43;101394.38;5117444;27;20382;-56
2023/03/27 00:12:53;;;;;;;11.00;5.60;;;;;;;4.33;77.96;101398.78;5136914;27;20078;-56
2023/03/27 00:15:20;;;;;;;10.05;5.47;;;;;;;4.44;78.15;101415.16;5135220;27;20055;-57
2023/03/27 00:17:47;;;;;;;13.43;6.15;;;;;;;4.39;79.38;101413.53;5135251;27;20023;-57
2023/03/27 00:20:21;;;;;;;16.27;6.80;;;;;;;4.49;78.59;101415.00;5135686;27;20023;-56
2023/03/27 00:22:47;;;;;;;9.70;5.65;;;;;;;4.43;78.96;101421.28;5118473;27;20422;-58
2023/03/27 00:25:12;;;;;;;11.43;6.40;;;;;;;4.41;78.94;101425.75;5143357;27;20114;-57
2023/03/27 00:27:38;;;;;;;15.48;6.15;;;;;;;4.41;79.88;101424.88;5137976;27;20044;-56
2023/03/27 00:30:05;;;;;;;15.20;6.55;;;;;;;4.43;79.37;101431.81;5155878;27;20015;-56
2023/03/27 00:32:33;;;;;;;13.35;5.57;;;;;;;4.41;79.95;101436.28;5135550;27;20047;-56
2023/03/27 00:34:58;;;;;;;14.32;5.85;;;;;;;4.42;78.81;101445.06;5156097;27;20098;-56
2023/03/27 00:37:24;;;;;;;12.95;6.57;;;;;;;4.37;78.92;101439.03;5156318;27;20421;-57
2023/03/27 00:39:49;;;;;;;8.15;5.47;;;;;;;4.38;80.00;101432.88;5137453;27;20102;-56
2023/03/27 00:42:21;;;;;;;10.57;5.88;;;;;;;4.35;79.70;101433.81;5129078;27;20038;-57
2023/03/27 00:44:50;;;;;;;10.65;5.68;;;;;;;4.33;79.95;101431.22;5134659;27;20102;-56
2023/03/27 00:47:29;;;;;;;14.35;5.45;;;;;;;4.35;80.07;101438.22;5135083;27;20016;-56
2023/03/27 00:49:56;;;;;;;11.38;5.75;;;;;;;4.20;79.40;101434.22;5135119;27;20027;-57
2023/03/27 00:52:22;;;;;;;13.80;6.35;;;;;;;4.22;80.39;101441.19;5133161;27;20050;-56
2023/03/27 00:54:47;;;;;;;11.27;5.68;;;;;;;4.23;79.79;101448.16;5155355;27;20115;-56
2023/03/27 00:57:18;;;;;;;14.93;6.53;;;;;;;4.22;80.74;101445.59;5155934;27;20048;-57
2023/03/27 00:59:44;;;;;;;;;;;;;;;4.30;79.63;101456.78;5155403;27;20110;-56
2023/03/27 01:02:11;;;;;;;7.32;4.72;;;;;;;4.13;81.01;101470.41;5135620;27;20463;-56
2023/03/27 01:04:40;;;;;;;14.93;5.70;;;;;;;4.06;81.29;101461.81;5147803;27;20030;-56
2023/03/27 01:07:07;;;;;;;10.05;6.30;;;;;;;4.06;81.13;101467.06;5155478;27;20058;-56
2023/03/27 01:09:33;;;;;;;10.25;5.53;;;;;;;4.05;81.07;101472.34;5155367;27;20027;-56
2023/03/27 01:12:22;;;;;;;8.48;5.68;;;;;;;4.07;81.23;101460.88;5139136;27;20057;-56
2023/03/27 01:14:50;;;;;;;8.82;3.97;;;;;;;4.08;81.45;101467.88;5135312;27;20418;-56
2023/03/27 01:17:37;;;;;;;13.15;5.82;;;;;;;3.98;82.22;101470.81;5138156;27;20038;-56
2023/03/27 01:20:26;;;;;;;9.63;5.32;;;;;;;4.00;82.00;101469.88;5134419;27;20220;-56
2023/03/27 01:23:13;;;;;;;11.15;5.22;;;;;;;3.98;81.89;101481.31;5134598;27;20386;-56
2023/03/27 01:26:00;;;;;;;8.98;5.45;;;;;;;3.98;82.19;101478.69;5134490;27;20079;-56
2023/03/27 01:28:50;;;;;;;14.38;5.60;;;;;;;3.87;82.85;101484.22;5113758;28;20043;-56
2023/03/27 01:31:52;;;;;;;13.15;6.10;;;;;;;3.95;82.83;101484.03;5113047;28;20047;-56
2023/03/27 01:34:33;;;;;;;11.38;5.75;;;;;;;4.04;82.47;101495.19;5095552;28;20106;-56
2023/03/27 01:37:46;;;;;;;12.82;5.85;;;;;;;4.06;83.52;101490.75;5128822;27;20023;-57
2023/03/27 01:40:22;;;;;;;8.95;4.60;;;;;;;4.10;83.06;101489.75;5063147;27;20490;-56
2023/03/27 01:43:03;;;;;;;7.97;5.32;;;;;;;4.09;83.95;101497.72;5155042;27;20019;-56
2023/03/27 01:45:39;;;;;;;10.52;5.50;;;;;;;4.10;83.81;101505.56;5135592;27;20030;-56
2023/03/27 01:48:17;;;;;;;14.52;6.53;;;;;;;4.10;83.67;101497.66;5134167;27;20034;-56
2023/03/27 01:50:45;;;;;;;9.27;5.75;;;;;;;4.12;83.44;101507.28;5134020;27;20023;-56
2023/03/27 01:53:17;;;;;;;11.73;7.40;;;;;;;4.07;83.69;101503.00;5134296;27;20027;-56
2023/03/27 01:55:49;;;;;;;8.38;5.70;;;;;;;4.08;83.89;101512.63;5115250;27;20027;-56
2023/03/27 01:58:27;;;;;;;11.50;5.13;;;;;;;3.93;84.35;101473.53;5117569;27;20125;-56
2023/03/27 02:00:55;;;;;;;10.77;5.70;;;;;;;4.14;83.53;101516.88;5133359;27;20076;-56
2023/03/27 02:03:30;;;;;;;8.07;5.63;;;;;;;4.06;84.59;101516.22;5133785;27;20019;-56
2023/03/27 02:06:01;;;;;;;10.77;5.38;;;;;;;4.18;83.96;101515.91;5139077;27;20078;-56
2023/03/27 02:08:52;;;;;;;8.05;5.43;;;;;;;4.17;84.52;101515.94;5154270;27;20434;-56
2023/03/27 02:11:17;;;;;;;8.43;5.55;;;;;;;4.17;83.65;101519.41;5135501;27;20105;-56
2023/03/27 02:13:54;;;;;;;6.63;5.88;;;;;;;4.09;84.27;101537.19;5135190;27;20113;-56
2023/03/27 02:16:32;;;;;;;5.75;5.15;;;;;;;4.16;83.81;101545.78;5133323;27;20067;-56
2023/03/27 02:19:02;;;;;;;8.20;5.20;;;;;;;4.03;83.79;101534.69;5154192;27;20034;-56
2023/03/27 02:21:30;;;;;;;9.23;5.03;;;;;;;4.05;84.44;101546.06;5135463;27;20065;-56
2023/03/27 02:23:56;;;;;;;10.65;5.85;;;;;;;3.92;84.92;101550.75;5153475;27;20072;-56
2023/03/27 02:26:21;;;;;;;11.90;6.13;;;;;;;3.93;84.76;101546.34;5126237;27;20470;-56
2023/03/27 02:28:55;;;;;;;12.48;5.75;;;;;;;3.98;84.34;101557.66;5134180;27;20113;-56
2023/03/27 02:31:39;;;;;;;10.40;5.38;;;;;;;3.93;84.64;101559.53;5113856;27;20047;-56
2023/03/27 02:34:37;;;;;;;10.07;6.18;;;;;;;3.89;85.60;101557.88;5133335;27;20039;-56
2023/03/27 02:37:32;;;;;;;7.70;4.70;;;;;;;3.93;85.03;101557.75;5109849;27;20621;-56
2023/03/27 02:40:17;;;;;;;10.60;6.00;;;;;;;3.80;85.34;101557.19;5129878;27;20061;-56
2023/03/27 02:42:55;;;;;;;10.55;5.05;;;;;;;3.78;86.44;101566.88;5132856;27;20035;-56
2023/03/27 02:45:35;;;;;;;11.30;6.18;;;;;;;3.73;86.47;101573.13;5137483;27;20026;-56
2023/03/27 02:48:09;;;;;;;;;;;;;;;3.85;84.89;101578.09;5154187;27;20026;-56
2023/03/27 02:50:49;;;;;;;11.80;6.32;;;;;;;3.71;85.54;101573.19;5153646;27;19968;-56
2023/03/27 02:53:21;;;;;;;9.85;5.78;;;;;;;3.65;85.07;101570.69;5153763;27;20070;-56
2023/03/27 02:55:56;;;;;;;11.38;6.55;;;;;;;3.64;85.86;101572.44;5146728;27;20458;-56
2023/03/27 02:58:33;;;;;;;11.07;5.25;;;;;;;3.57;86.45;101575.25;5140379;27;20465;-56
2023/03/27 03:01:00;;;;;;;13.48;6.38;;;;;;;3.44;86.13;101574.63;5132296;27;20538;-56
2023/03/27 03:03:31;;;;;;;12.90;5.50;;;;;;;3.44;85.96;101592.19;5132828;27;20031;-56
2023/03/27 03:05:59;;;;;;;11.38;5.60;;;;;;;3.36;86.51;101581.84;5133334;27;20023;-56
2023/03/27 03:08:29;;;;;;;10.63;5.88;;;;;;;3.29;86.93;101582.88;5114783;27;20359;-56
2023/03/27 03:10:58;;;;;;;;;;;;;;;3.55;85.73;101600.72;5153282;27;20100;-56
2023/03/27 03:13:25;;;;;;;5.47;4.88;;;;;;;3.50;86.13;101599.94;5134838;27;20362;-57
2023/03/27 03:15:50;;;;;;;9.43;5.00;;;;;;;3.51;86.63;101597.28;5152634;27;20026;-56
2023/03/27 03:18:15;;;;;;;9.50;5.45;;;;;;;3.50;86.29;101598.22;5151650;27;20023;-56
2023/03/27 03:20:41;;;;;;;6.78;5.45;;;;;;;3.49;85.87;101608.75;5141372;27;20035;-57
2023/03/27 03:23:07;;;;;;;9.57;5.75;;;;;;;3.49;85.46;101611.38;5114105;27;20024;-56
2023/03/27 03:25:33;;;;;;;14.10;6.13;;;;;;;3.47;85.73;101608.78;5135285;27;20516;-57
2023/03/27 03:28:01;;;;;;;11.90;5.78;;;;;;;3.38;85.71;101611.59;5136707;27;20058;-57
2023/03/27 03:30:29;;;;;;;10.25;5.13;;;;;;;3.36;85.92;101626.56;5125772;27;20030;-57
2023/03/27 03:32:55;;;;;;;8.45;5.40;;;;;;;3.31;85.86;101620.50;5155254;27;20055;-57
2023/03/27 03:35:22;;;;;;;9.55;5.75;;;;;;;3.31;85.74;101631.88;5138821;27;20031;-56
2023/03/27 03:37:51;;;;;;;13.85;6.38;;;;;;;3.31;85.12;101644.16;5138655;27;20015;-57
2023/03/27 03:40:18;;;;;;;10.10;5.27;;;;;;;3.32;85.94;101638.00;5138530;27;20027;-56
2023/03/27 03:42:49;;;;;;;11.43;5.10;;;;;;;3.27;85.30;101645.16;5148824;27;20023;-56
2023/03/27 03:45:15;;;;;;;14.38;5.35;;;;;;;3.29;85.94;101652.06;5117672;27;20091;-57
2023/03/27 03:47:44;;;;;;;9.07;6.05;;;;;;;3.28;85.82;101647.72;5118139;27;20027;-56
2023/03/27 03:50:10;;;;;;;13.82;5.57;;;;;;;3.28;85.95;101658.25;5136426;27;20423;-56
2023/03/27 03:52:37;;;;;;;6.40;5.28;;;;;;;3.28;86.43;101652.13;5137396;27;20556;-56
2023/03/27 03:55:03;;;;;;;7.35;5.10;;;;;;;3.23;86.31;101660.09;5135956;27;20443;-56
2023/03/27 03:57:29;;;;;;;8.63;4.95;;;;;;;3.27;86.83;101661.78;5153786;27;20019;-56
2023/03/27 03:59:56;;;;;;;12.63;5.05;;;;;;;3.16;87.50;101654.09;5137817;27;20018;-56
2023/03/27 04:02:27;;;;;;;12.85;5.60;;;;;;;3.21;87.00;101668.88;5157027;27;20450;-56
2023/03/27 04:04:55;;;;;;;13.35;4.97;;;;;;;3.26;86.33;101674.94;5138041;27;20019;-56
2023/03/27 04:07:22;;;;;;;8.38;5.03;;;;;;;3.28;87.15;101675.78;5125948;27;20531;-56
2023/03/27 04:09:50;;;;;;;11.35;5.93;;;;;;;3.30;86.21;101677.50;5129741;27;20034;-56
2023/03/27 04:12:16;;;;;;;8.10;5.45;;;;;;;3.34;85.96;101686.16;5155127;27;20030;-56
2023/03/27 04:14:42;;;;;;;11.43;5.47;;;;;;;3.37;86.30;101688.75;5156322;27;20083;-56
2023/03/27 04:17:08;;;;;;;12.32;5.25;;;;;;;3.30;86.16;101682.75;5101323;28;20028;-56
2023/03/27 04:19:34;;;;;;;10.57;5.47;;;;;;;3.34;86.58;101686.16;5115464;28;20035;-56
2023/03/27 04:22:03;;;;;;;9.85;5.72;;;;;;;3.30;86.22;101697.66;5115194;28;20028;-56
2023/03/27 04:24:31;;;;;;;11.20;5.43;;;;;;;3.26;85.43;101695.97;5120030;27;20019;-56
2023/03/27 04:26:57;;;;;;;7.55;5.00;;;;;;;3.19;86.24;101703.97;5136523;27;20478;-56
2023/03/27 04:29:23;;;;;;;8.23;5.05;;;;;;;3.21;85.90;101708.31;5135633;27;20031;-56
2023/03/27 04:31:49;;;;;;;12.95;5.82;;;;;;;3.13;86.03;101704.09;5134377;27;20047;-57
2023/03/27 04:34:19;;;;;;;7.28;5.40;;;;;;;3.19;86.34;101717.09;5115953;28;20053;-56
2023/03/27 04:36:44;;;;;;;8.45;5.70;;;;;;;3.21;86.05;101722.34;5134776;27;20485;-56
2023/03/27 04:39:10;;;;;;;9.07;5.13;;;;;;;3.15;86.58;101730.34;5134339;28;20023;-56
2023/03/27 04:41:37;;;;;;;14.05;5.88;;;;;;;3.12;85.95;101728.66;5134177;28;20027;-56
2023/03/27 04:44:04;;;;;;;11.43;5.50;;;;;;;3.15;86.80;101736.47;5134305;27;20045;-56
2023/03/27 04:46:30;;;;;;;8.27;5.50;;;;;;;3.08;86.80;101737.47;5133474;27;20541;-56
2023/03/27 04:48:55;;;;;;;8.13;5.43;;;;;;;3.09;86.16;101735.69;5135181;27;20103;-56
2023/03/27 04:51:21;;;;;;;9.63;5.63;;;;;;;3.03;86.75;101735.81;5115691;28;20035;-56
2023/03/27 04:53:46;;;;;;;9.85;5.60;;;;;;;3.07;85.68;101742.75;5098569;28;20022;-56
2023/03/27 04:56:12;;;;;;;9.02;5.30;;;;;;;3.03;86.24;101744.59;5134055;28;20022;-56
2023/03/27 04:58:40;;;;;;;5.90;5.00;;;;;;;3.06;86.17;101756.78;5116961;28;20455;-56
2023/03/27 05:01:06;;;;;;;7.43;5.05;;;;;;;3.07;86.81;101755.91;5133237;28;20048;-56
2023/03/27 05:03:33;;;;;;;10.15;5.53;;;;;;;3.06;87.48;101759.41;5133896;28;20041;-56
2023/03/27 05:05:58;;;;;;;12.80;5.72;;;;;;;3.06;87.37;101762.03;5133570;28;20440;-56
2023/03/27 05:08:26;;;;;;;7.65;5.32;;;;;;;3.06;87.81;101760.28;5116715;27;20056;-56
2023/03/27 05:10:52;;;;;;;8.93;5.18;;;;;;;2.99;87.74;101755.16;5133605;28;20023;-56
2023/03/27 05:13:17;;;;;;;9.48;5.28;;;;;;;3.08;88.05;101770.75;5133879;28;20019;-57
2023/03/27 05:15:43;;;;;;;6.57;4.80;;;;;;;3.05;88.03;101776.94;5132894;27;20167;-56
2023/03/27 05:18:08;;;;;;;7.05;5.03;;;;;;;3.04;88.43;101779.59;5115269;28;20443;-56
2023/03/27 05:20:34;;;;;;;9.02;6.72;;;;;;;3.10;88.17;101788.25;5134252;27;20015;-56
2023/03/27 05:23:00;;;;;;;11.30;5.13;;;;;;;3.09;88.64;101783.91;5127989;27;20082;-56
2023/03/27 05:25:26;;;;;;;5.90;5.32;;;;;;;3.19;87.48;101787.22;5150321;27;20489;-56
2023/03/27 05:27:53;;;;;;;8.02;4.97;;;;;;;3.18;87.88;101789.00;5135443;27;20023;-56
2023/03/27 05:30:21;;;;;;;9.13;5.40;;;;;;;3.24;88.78;101795.91;5153564;27;20052;-56
2023/03/27 05:32:50;;;;;;;8.43;5.43;;;;;;;3.25;88.16;101788.88;5110043;27;1259424;-56
2023/03/27 05:35:18;;;;;;;6.72;5.72;;;;;;;3.31;88.43;101794.03;5152589;27;20031;-56
2023/03/27 05:37:47;;;;;;;6.60;5.13;;;;;;;3.30;88.51;101808.94;5113701;28;20450;-56
2023/03/27 05:40:15;;;;;;;13.93;5.85;;;;;;;3.34;88.53;101807.97;5113704;28;20069;-57
2023/03/27 05:42:43;;;;;;;8.13;4.95;;;;;;;3.31;87.93;101807.16;5113318;28;20058;-56
2023/03/27 05:45:08;;;;;;;8.45;6.20;;;;;;;3.36;87.72;101811.47;5132949;27;20097;-57
2023/03/27 05:47:46;;;;;;;7.15;5.43;;;;;;;3.35;88.38;101819.34;5153762;27;20105;-56
2023/03/27 05:50:13;;;;;;;12.68;6.03;;;;;;;3.33;88.31;101813.28;5120547;27;20470;-56
2023/03/27 05:52:38;;;;;;;9.25;5.93;;;;;;;3.31;89.14;101823.81;5115867;27;20027;-56
2023/03/27 05:55:05;;;;;;;10.07;5.65;;;;;;;3.37;89.00;101834.22;5115480;27;20408;-56
2023/03/27 05:57:31;;;;;;;11.10;5.75;;;;;;;3.36;89.01;101827.22;5133810;27;20030;-56
2023/03/27 05:59:56;;;;;;;8.50;5.88;;;;;;;3.22;88.61;101817.84;5134409;27;20482;-56
2023/03/27 06:02:22;;;;;;;12.15;6.25;;;;;;;3.31;89.52;101829.06;5133921;27;20031;-57
2023/03/27 06:04:47;;;;;;;10.57;6.10;;;;;;;3.13;89.38;101817.09;5126627;27;20034;-56
2023/03/27 06:07:13;;;;;;;11.90;6.30;;;;;;;3.18;89.72;101824.94;5154318;27;20034;-56
2023/03/27 06:09:41;;;;;;;8.27;5.18;;;;;;;3.24;88.93;101842.34;5135875;27;20030;-56
2023/03/27 06:12:07;;;;;;;9.68;6.35;;;;;;;3.27;90.08;101856.31;5135741;27;20023;-57
2023/03/27 06:14:32;;;;;;;9.60;5.82;;;;;;;3.36;89.73;101865.81;5150710;27;20057;-56
2023/03/27 06:16:58;;;;;;;11.10;5.82;;;;;;;3.33;89.17;101881.63;5139516;27;20022;-56
2023/03/27 06:19:23;;;;;;;7.88;6.38;;;;;;;3.11;89.70;101881.09;5154025;27;20026;-56
2023/03/27 06:21:50;;;;;;;12.48;6.13;;;;;;;2.89;91.86;101886.69;5133583;27;20031;-57
2023/03/27 06:24:15;;;;;;;14.68;6.32;;;;;;;2.83;92.95;101883.28;5114774;27;20110;-57
2023/03/27 06:26:41;;;;;;;7.20;6.50;;;;;;;2.88;93.40;101886.69;5133108;27;20106;-56
2023/03/27 06:29:07;;;;;;;7.13;6.22;;;;;;;2.88;93.65;101887.56;5133029;27;20070;-56
2023/03/27 06:31:32;;;;;;;7.35;6.75;;;;;;;2.82;93.87;101866.63;5128083;27;20059;-57
2023/03/27 06:33:58;;;;;;;7.20;6.50;;;;;;;2.93;93.68;101876.97;5153574;27;20553;-57
2023/03/27 06:36:23;;;;;;;7.15;5.78;;;;;;;2.97;93.42;101878.66;5153724;27;20102;-57
2023/03/27 06:38:49;;;;;;;7.80;6.00;;;;;;;2.95;93.71;101873.44;5135061;27;20053;-56
2023/03/27 06:41:17;;;;;;;8.25;6.28;;;;;;;2.96;94.22;101884.81;5127151;27;20044;-56
2023/03/27 06:43:42;;;;;;;7.30;6.40;;;;;;;2.93;93.77;101887.50;5114758;27;20034;-56
2023/03/27 06:46:08;;;;;;;6.78;6.22;;;;;;;2.97;94.13;101891.81;5135147;27;20423;-56
2023/03/27 06:48:38;;;;;;;6.90;6.30;;;;;;;3.03;93.91;101891.75;5153488;27;20027;-56
2023/03/27 06:51:03;;;;;;;7.85;6.72;;;;;;;3.06;93.92;101896.06;5134365;27;20505;-57
2023/03/27 06:53:29;;;;;;;11.20;6.60;;;;;;;3.08;94.19;101899.53;5132885;27;20122;-57
2023/03/27 06:55:55;;;;;;;26.60;8.55;;;;;;;3.09;94.43;101907.41;5114149;28;20061;-57
2023/03/27 06:58:21;;;;;;;32.97;9.23;;;;;;;3.13;94.70;101895.94;5114384;28;20027;-56
2023/03/27 07:00:48;;;;;;;12.80;7.18;;;;;;;3.28;94.38;101915.88;5134472;27;20470;-56
2023/03/27 07:03:14;;;;;;;14.25;7.18;;;;;;;3.29;94.15;101916.72;5132492;27;20106;-56
2023/03/27 07:05:40;;;;;;;8.15;5.72;;;;;;;3.30;94.67;101927.25;5132908;27;20110;-56
2023/03/27 07:08:08;;;;;;;7.22;6.05;;;;;;;3.31;94.38;101907.06;5114152;27;20030;-56
2023/03/27 07:10:34;;;;;;;6.72;6.13;;;;;;;3.54;94.84;101925.97;5139687;27;20110;-56
2023/03/27 07:12:59;;;;;;;10.80;6.30;;;;;;;3.63;93.92;101925.81;5153414;27;20110;-56
2023/03/27 07:15:25;;;;;;;9.43;6.47;;;;;;;3.81;93.22;101929.03;5122855;27;20483;-57
2023/03/27 07:18:00;;;;;;;7.72;5.95;;;;;;;3.89;92.60;101929.78;5127366;27;20019;-58
2023/03/27 07:20:27;;;;;;;9.63;6.65;;;;;;;4.05;91.05;101938.25;5098024;27;20126;-58
2023/03/27 07:22:59;;;;;;;8.02;6.22;;;;;;;4.15;90.96;101938.94;5132888;27;20023;-58
2023/03/27 07:25:27;;;;;;;13.23;5.78;;;;;;;4.29;89.05;101934.28;5113414;28;20035;-58
2023/03/27 07:27:59;;;;;;;6.93;5.75;;;;;;;4.39;89.48;101938.47;5131916;27;20027;-57
2023/03/27 07:30:29;;;;;;;7.28;5.82;;;;;;;4.41;88.98;101946.34;5130138;27;20076;-57
2023/03/27 07:32:57;;;;;;;8.68;5.38;;;;;;;4.45;87.27;101946.25;5137537;27;20050;-57
2023/03/27 07:35:23;;;;;;;15.13;6.38;;;;;;;4.50;86.82;101949.69;5131573;27;20053;-57
2023/03/27 07:37:48;;;;;;;12.68;6.53;;;;;;;4.61;86.59;101957.34;5131937;27;20477;-58
2023/03/27 07:40:14;;;;;;;6.90;5.88;;;;;;;4.75;84.42;101957.94;5131576;27;20030;-57
2023/03/27 07:42:44;;;;;;;8.05;6.00;;;;;;;4.86;84.93;101957.72;5133196;27;20056;-58
2023/03/27 07:45:11;;;;;;;11.02;5.03;;;;;;;4.96;82.76;101953.97;5136688;27;20058;-58
2023/03/27 07:47:38;;;;;;;8.70;5.90;;;;;;;5.05;82.58;101952.91;5113435;28;20028;-58
2023/03/27 07:50:04;;;;;;;7.30;6.03;;;;;;;5.02;81.27;101955.59;5113110;27;20023;-58
2023/03/27 07:52:33;;;;;;;10.48;6.55;;;;;;;5.09;80.61;101958.97;5140409;27;20027;-58
2023/03/27 07:54:58;;;;;;;7.32;5.45;;;;;;;5.27;79.52;101966.47;5131124;27;20457;-57
2023/03/27 07:57:24;;;;;;;7.20;6.00;;;;;;;5.36;79.78;101965.41;5131716;27;20031;-57
2023/03/27 07:59:51;;;;;;;12.25;6.28;;;;;;;5.47;78.34;101971.25;5112698;27;20066;-57
2023/03/27 08:02:16;;;;;;;11.45;5.72;;;;;;;5.52;78.79;101964.13;5137065;27;20357;-57
2023/03/27 08:04:42;;;;;;;14.90;7.65;;;;;;;5.56;77.16;101970.19;5131698;27;20019;-57
2023/03/27 08:07:10;;;;;;;12.30;6.32;;;;;;;5.74;76.29;101975.03;5131552;27;20035;-58
2023/03/27 08:09:36;;;;;;;10.50;6.70;;;;;;;5.97;77.53;101977.13;5131779;27;20504;-57
2023/03/27 08:12:02;;;;;;;12.82;7.03;;;;;;;6.10;75.13;101980.31;5137519;27;20023;-57
2023/03/27 08:14:28;;;;;;;10.82;7.72;;;;;;;6.17;75.03;101970.44;5155937;27;20037;-57
2023/03/27 08:16:53;;;;;;;11.93;6.25;;;;;;;6.32;75.65;101977.94;5137663;27;20023;-57
2023/03/27 08:19:20;;;;;;;13.50;7.78;;;;;;;6.37;73.96;101971.63;5156515;27;20470;-57
2023/03/27 08:21:45;;;;;;;10.52;5.50;;;;;;;6.39;73.16;101989.25;5154681;27;20026;-57
2023/03/27 08:24:11;;;;;;;10.90;5.57;;;;;;;6.38;73.18;101993.63;5135232;27;20042;-57
2023/03/27 08:26:37;;;;;;;15.55;6.22;;;;;;;6.26;74.32;102005.38;5135482;27;20031;-57
2023/03/27 08:29:03;;;;;;;10.60;6.85;;;;;;;5.93;74.22;102007.13;5135168;27;20182;-57
2023/03/27 08:31:30;;;;;;;9.10;6.07;;;;;;;5.60;74.44;102016.72;5134827;27;20190;-57
2023/03/27 08:33:56;;;;;;;7.40;6.15;;;;;;;5.75;78.92;101997.00;5136488;27;20042;-57
2023/03/27 08:36:23;;;;;;;8.57;6.30;;;;;;;5.99;76.02;102001.69;5135391;27;20015;-57
2023/03/27 08:38:49;;;;;;;8.85;6.85;;;;;;;6.18;72.77;102015.31;5135289;27;20065;-57
2023/03/27 08:41:24;;;;;;;6.72;5.85;;;;;;;6.21;73.56;102014.38;5138023;27;20305;-57
2023/03/27 08:43:50;;;;;;;8.18;6.38;;;;;;;6.32;73.61;102007.00;5155685;27;20434;-58
2023/03/27 08:46:22;;;;;;;7.00;6.28;;;;;;;6.48;71.88;102018.91;5136775;27;20053;-57
2023/03/27 08:48:55;;;;;;;11.40;7.20;;;;;;;6.74;73.74;102015.56;5156173;27;20022;-57
2023/03/27 08:51:38;;;;;;;12.60;6.50;;;;;;;7.09;73.80;102018.06;5154542;27;20027;-58
2023/03/27 08:54:17;;;;;;;12.13;6.53;;;;;;;7.11;70.02;102006.53;5114686;28;20393;-58
2023/03/27 08:56:44;;;;;;;9.25;7.03;;;;;;;7.22;69.42;102012.38;5114417;28;20028;-58
2023/03/27 08:59:13;;;;;;;9.30;6.68;;;;;;;7.40;69.66;102025.97;5114472;28;20356;-57
2023/03/27 09:01:50;;;;;;;10.02;7.20;;;;;;;7.76;70.96;102034.50;5130607;27;20437;-57
2023/03/27 09:04:33;;;;;;;8.73;5.75;;;;;;;7.86;68.79;102041.25;5136787;27;20027;-57
2023/03/27 09:07:31;;;;;;;10.07;6.15;;;;;;;7.65;67.72;102044.59;5144941;27;20069;-57
2023/03/27 09:10:09;;;;;;;7.90;7.13;;;;;;;7.79;68.88;102034.41;5141485;27;20482;-57
2023/03/27 09:12:42;;;;;;;8.70;6.00;;;;;;;7.94;65.53;102035.69;5116289;27;20030;-57
2023/03/27 09:15:15;;;;;;;11.68;6.38;;;;;;;8.10;66.22;102041.38;5116089;27;20389;-58
2023/03/27 09:17:52;;;;;;;10.18;6.15;;;;;;;8.38;62.96;102046.56;5135254;27;20286;-58
2023/03/27 09:20:30;;;;;;;7.13;5.75;;;;;;;8.37;61.20;102048.38;5147421;27;20408;-57
2023/03/27 09:23:12;;;;;;;8.98;6.03;;;;;;;8.56;63.60;102051.28;5153935;27;20023;-57
2023/03/27 09:25:46;;;;;;;6.25;5.65;;;;;;;8.63;61.96;102065.19;5139843;27;20026;-57
2023/03/27 09:28:22;;;;;;;6.10;5.32;;;;;;;8.25;66.89;102096.50;5115958;27;20023;-58
2023/03/27 09:30:47;;;;;;;5.15;4.75;;;;;;;7.03;69.29;102085.28;5134942;27;20023;-58
2023/03/27 09:33:13;;;;;;;5.30;4.80;;;;;;;6.31;72.52;102103.91;5151450;27;20069;-58
2023/03/27 09:35:38;;;;;;;5.25;4.82;;;;;;;5.73;76.09;102107.03;5112225;28;20032;-57
2023/03/27 09:38:30;;;;;;;7.07;5.55;;;;;;;5.58;77.38;102116.16;5113598;28;20082;-57
2023/03/27 09:41:21;;;;;;;5.50;5.00;;;;;;;5.30;78.92;102103.56;5113426;28;20482;-57
2023/03/27 09:44:14;;;;;;;5.85;5.25;;;;;;;5.09;79.08;102096.06;5112024;28;20143;-57
2023/03/27 09:46:44;;;;;;;5.85;5.32;;;;;;;4.95;80.85;102094.59;5112906;28;20031;-58
2023/03/27 09:49:22;;;;;;;7.00;6.50;;;;;;;5.01;79.84;102096.25;5120655;27;20019;-57
2023/03/27 09:51:57;;;;;;;5.75;5.32;;;;;;;5.01;80.42;102083.91;5112700;27;20019;-58
2023/03/27 09:54:28;;;;;;;7.90;6.80;;;;;;;5.12;80.63;102093.41;5115656;27;20495;-57
2023/03/27 09:57:05;;;;;;;5.90;5.10;;;;;;;5.49;81.79;102095.25;5145269;27;20015;-57
2023/03/27 09:59:37;;;;;;;5.80;5.18;;;;;;;5.67;78.99;102094.84;5114925;27;20047;-57
2023/03/27 10:02:29;;;;;;;5.85;5.43;;;;;;;5.92;79.54;102103.06;5115410;27;20027;-57
2023/03/27 10:05:25;;;;;;;10.77;6.40;;;;;;;5.99;77.13;102101.19;5130080;27;20038;-57
2023/03/27 10:07:51;;;;;;;6.95;6.32;;;;;;;6.09;77.75;102108.00;5112746;27;20083;-57
2023/03/27 10:10:19;;;;;;;7.03;6.20;;;;;;;6.40;75.90;102117.78;5114478;27;20018;-57
2023/03/27 10:12:54;;;;;;;6.78;4.55;;;;;;;6.97;76.46;102122.44;5114761;27;20153;-57
2023/03/27 10:15:31;;;;;;;7.63;4.25;;;;;;;7.20;72.17;102119.16;5133066;27;20051;-57
2023/03/27 10:17:58;;;;;;;8.15;4.10;;;;;;;7.39;71.57;102111.56;5114875;27;20106;-57
2023/03/27 10:20:24;;;;;;;7.72;4.57;;;;;;;7.55;70.95;102114.63;5133192;27;20158;-58
2023/03/27 10:22:55;;;;;;;8.40;4.25;;;;;;;7.89;71.27;102115.31;5116343;27;20113;-57
2023/03/27 10:25:38;;;;;;;7.68;4.40;;;;;;;8.18;70.97;102103.78;5114527;27;20030;-58
2023/03/27 10:28:17;;;;;;;8.88;4.68;;;;;;;8.78;69.77;102112.38;5114850;27;20030;-58
2023/03/27 10:30:43;;;;;;;7.50;4.05;;;;;;;8.74;66.62;102100.16;5114144;27;20474;-58
2023/03/27 10:33:09;;;;;;;6.28;3.60;;;;;;;8.97;66.01;102111.72;5133862;27;20047;-57
2023/03/27 10:35:44;;;;;;;5.28;3.22;;;;;;;8.84;64.89;102119.25;5133115;27;20493;-58
2023/03/27 10:38:15;;;;;;;5.15;3.63;;;;;;;9.01;63.71;102118.66;5114828;27;20102;-57
2023/03/27 10:40:47;;;;;;;7.40;3.55;;;;;;;9.06;62.84;102111.41;5132706;27;20056;-57
2023/03/27 10:43:24;;;;;;;7.63;3.70;;;;;;;9.31;64.09;102106.06;5143805;27;20031;-57
2023/03/27 10:46:12;;;;;;;5.00;3.28;;;;;;;9.47;63.29;102104.56;5129259;27;20101;-57
2023/03/27 10:48:40;;;;;;;5.80;3.08;;;;;;;9.38;60.29;102115.50;5126386;27;20038;-57
2023/03/27 10:51:30;;;;;;;5.25;3.33;;;;;;;9.48;60.54;102116.91;5153461;27;20029;-57
2023/03/27 10:54:00;;;;;;;;;;;;;;;9.95;60.41;102113.31;5153867;27;20034;-57
2023/03/27 10:56:33;;;;;;;5.57;2.95;;;;;;;10.30;62.18;102111.06;5135079;27;19917;-57
2023/03/27 10:59:04;;;;;;;8.63;3.45;;;;;;;10.46;60.07;102105.00;5151777;27;20019;-57
2023/03/27 11:01:41;;;;;;;6.60;3.00;;;;;;;10.63;57.34;102130.91;5134932;27;20019;-57
2023/03/27 11:04:26;;;;;;;8.70;2.85;;;;;;;9.43;61.75;102155.19;5153552;27;20027;-57
2023/03/27 11:06:56;;;;;;;7.53;4.38;;;;;;;7.99;69.15;102158.28;5135146;27;20027;-57
2023/03/27 11:09:43;;;;;;;7.97;4.22;;;;;;;7.70;73.42;102169.75;5114742;27;20033;-58
2023/03/27 11:12:10;;;;;;;5.95;5.05;;;;;;;6.90;75.71;102181.72;5117882;27;20019;-58
2023/03/27 11:14:52;;;;;;;6.03;4.80;;;;;;;6.31;78.96;102169.09;5149915;27;20117;-57
2023/03/27 11:17:22;;;;;;;6.53;5.72;;;;;;;6.14;81.55;102165.06;5132625;28;20102;-57
2023/03/27 11:20:09;;;;;;;5.97;5.35;;;;;;;6.39;83.17;102174.19;5133006;28;20409;-57
2023/03/27 11:22:47;;;;;;;9.32;5.90;;;;;;;6.99;82.82;102169.09;5132580;28;20038;-57
2023/03/27 11:25:30;;;;;;;8.65;4.45;;;;;;;8.25;79.86;102160.09;5133223;27;20022;-58
2023/03/27 11:28:25;;;;;;;5.95;3.45;;;;;;;9.36;77.18;102172.28;5113983;28;20556;-57
2023/03/27 11:31:01;;;;;;;5.10;3.65;;;;;;;9.77;72.37;102170.72;5100293;28;20035;-58
2023/03/27 11:33:58;;;;;;;4.68;3.25;;;;;;;10.51;69.16;102165.16;5132358;28;20047;-58
2023/03/27 11:36:36;;;;;;;3.83;2.50;;;;;;;11.85;69.21;102171.63;5141968;27;20025;-58
2023/03/27 11:39:37;;;;;;;8.25;3.20;;;;;;;13.08;65.84;102170.88;5152863;27;20018;-58
2023/03/27 11:42:14;;;;;;;3.50;2.20;;;;;;;13.69;59.90;102166.75;5098547;27;20070;-58
2023/03/27 11:44:40;;;;;;;4.13;2.40;;;;;;;12.91;57.37;102169.06;5133756;27;20427;-58
2023/03/27 11:47:37;;;;;;;4.88;2.85;;;;;;;12.88;60.80;102167.44;5132438;27;20027;-58
2023/03/27 11:50:24;;;;;;;6.25;2.72;;;;;;;12.71;59.71;102167.44;5157033;27;20026;-58